sensor_id;sensor_type;location;lat;lon;timestamp;temperature;humidity
20158;DHT22;10239;56.820;24.416;2024-02-23T00:01:28;5.70;99.90
20158;DHT22;10239;56.820;24.416;2024-02-23T00:03:56;5.70;99.90
20158;DHT22;10239;56.820;24.416;2024-02-23T00:06:24;5.70;99.90
20158;DHT22;10239;56.820;24.416;2024-02-23T00:08:55;5.70;99.90
20158;DHT22;10239;56.820;24.416;2024-02-23T00:11:23;5.60;99.90
20158;DHT22;10239;56.820;24.416;2024-02-23T00:13:51;5.50;99.90
20158;DHT22;10239;56.820;24.416;2024-02-23T00:16:19;5.70;99.90
20158;DHT22;10239;56.820;24.416;2024-02-23T00:18:46;6.00;99.90
20158;DHT22;10239;56.820;24.416;2024-02-23T00:21:14;5.80;99.90
20158;DHT22;10239;56.820;24.416;2024-02-23T00:23:41;6.00;99.90
20158;DHT22;10239;56.820;24.416;2024-02-23T00:26:09;5.90;99.90
20158;DHT22;10239;56.820;24.416;2024-02-23T00:28:37;5.90;99.90
20158;DHT22;10239;56.820;24.416;2024-02-23T00:31:05;5.90;99.90
20158;DHT22;10239;56.820;24.416;2024-02-23T00:33:32;6.30;99.90
20158;DHT22;10239;56.820;24.416;2024-02-23T00:36:00;6.20;99.90
20158;DHT22;10239;56.820;24.416;2024-02-23T00:38:28;5.90;99.90
20158;DHT22;10239;56.820;24.416;2024-02-23T00:40:56;6.00;99.90
20158;DHT22;10239;56.820;24.416;2024-02-23T00:43:23;6.20;99.90
20158;DHT22;10239;56.820;24.416;2024-02-23T00:45:51;6.00;99.90
20158;DHT22;10239;56.820;24.416;2024-02-23T00:48:19;5.90;99.90
20158;DHT22;10239;56.820;24.416;2024-02-23T00:50:46;6.00;99.90
20158;DHT22;10239;56.820;24.416;2024-02-23T00:53:14;5.90;99.90
20158;DHT22;10239;56.820;24.416;2024-02-23T00:55:42;5.90;99.90
20158;DHT22;10239;56.820;24.416;2024-02-23T00:58:09;6.00;99.90
20158;DHT22;10239;56.820;24.416;2024-02-23T01:00:37;6.10;99.90
20158;DHT22;10239;56.820;24.416;2024-02-23T01:03:05;6.00;99.90
20158;DHT22;10239;56.820;24.416;2024-02-23T01:05:33;5.90;99.90
20158;DHT22;10239;56.820;24.416;2024-02-23T01:08:01;5.90;99.90
20158;DHT22;10239;56.820;24.416;2024-02-23T01:10:30;5.90;99.90
20158;DHT22;10239;56.820;24.416;2024-02-23T01:12:57;5.90;99.90
20158;DHT22;10239;56.820;24.416;2024-02-23T01:15:25;6.00;99.90
20158;DHT22;10239;56.820;24.416;2024-02-23T01:17:52;6.10;99.90
20158;DHT22;10239;56.820;24.416;2024-02-23T01:20:20;6.30;99.90
20158;DHT22;10239;56.820;24.416;2024-02-23T01:22:48;6.20;99.90
20158;DHT22;10239;56.820;24.416;2024-02-23T01:25:15;6.10;99.90
20158;DHT22;10239;56.820;24.416;2024-02-23T01:27:43;6.10;99.90
20158;DHT22;10239;56.820;24.416;2024-02-23T01:30:14;6.10;99.90
20158;DHT22;10239;56.820;24.416;2024-02-23T01:32:41;6.20;99.90
20158;DHT22;10239;56.820;24.416;2024-02-23T01:35:09;6.20;99.90
20158;DHT22;10239;56.820;24.416;2024-02-23T01:37:37;6.50;99.90
20158;DHT22;10239;56.820;24.416;2024-02-23T01:40:05;6.30;99.90
20158;DHT22;10239;56.820;24.416;2024-02-23T01:42:33;6.10;99.90
20158;DHT22;10239;56.820;24.416;2024-02-23T01:45:01;6.30;99.90
20158;DHT22;10239;56.820;24.416;2024-02-23T01:47:29;6.20;99.90
20158;DHT22;10239;56.820;24.416;2024-02-23T01:50:00;6.30;99.90
20158;DHT22;10239;56.820;24.416;2024-02-23T01:52:28;6.50;99.90
20158;DHT22;10239;56.820;24.416;2024-02-23T01:54:56;6.40;99.90
20158;DHT22;10239;56.820;24.416;2024-02-23T01:57:24;6.40;99.90
20158;DHT22;10239;56.820;24.416;2024-02-23T02:00:16;6.30;99.90
20158;DHT22;10239;56.820;24.416;2024-02-23T02:02:51;6.30;99.90
20158;DHT22;10239;56.820;24.416;2024-02-23T02:05:19;6.40;99.90
20158;DHT22;10239;56.820;24.416;2024-02-23T02:07:49;6.30;99.90
20158;DHT22;10239;56.820;24.416;2024-02-23T02:10:21;6.50;99.90
20158;DHT22;10239;56.820;24.416;2024-02-23T02:12:48;6.30;99.90
20158;DHT22;10239;56.820;24.416;2024-02-23T02:15:16;6.50;99.90
20158;DHT22;10239;56.820;24.416;2024-02-23T02:17:44;6.60;99.90
20158;DHT22;10239;56.820;24.416;2024-02-23T02:20:13;6.40;99.90
20158;DHT22;10239;56.820;24.416;2024-02-23T02:22:41;6.20;99.90
20158;DHT22;10239;56.820;24.416;2024-02-23T02:25:08;6.20;99.90
20158;DHT22;10239;56.820;24.416;2024-02-23T02:27:36;6.30;99.90
20158;DHT22;10239;56.820;24.416;2024-02-23T02:30:04;6.30;99.90
20158;DHT22;10239;56.820;24.416;2024-02-23T02:32:31;6.30;99.90
20158;DHT22;10239;56.820;24.416;2024-02-23T02:35:04;6.30;99.90
20158;DHT22;10239;56.820;24.416;2024-02-23T02:37:32;6.30;99.90
20158;DHT22;10239;56.820;24.416;2024-02-23T02:39:59;6.30;99.90
20158;DHT22;10239;56.820;24.416;2024-02-23T02:42:27;6.30;99.90
20158;DHT22;10239;56.820;24.416;2024-02-23T02:44:56;6.30;99.90
20158;DHT22;10239;56.820;24.416;2024-02-23T02:47:23;6.10;99.90
20158;DHT22;10239;56.820;24.416;2024-02-23T02:49:51;6.20;99.90
20158;DHT22;10239;56.820;24.416;2024-02-23T02:52:19;6.40;99.90
20158;DHT22;10239;56.820;24.416;2024-02-23T02:54:50;6.30;99.90
20158;DHT22;10239;56.820;24.416;2024-02-23T02:57:18;6.30;99.90
20158;DHT22;10239;56.820;24.416;2024-02-23T02:59:46;6.20;99.90
20158;DHT22;10239;56.820;24.416;2024-02-23T03:02:13;6.10;99.90
20158;DHT22;10239;56.820;24.416;2024-02-23T03:04:53;6.20;99.90
20158;DHT22;10239;56.820;24.416;2024-02-23T03:07:23;6.50;99.90
20158;DHT22;10239;56.820;24.416;2024-02-23T03:09:51;6.20;99.90
20158;DHT22;10239;56.820;24.416;2024-02-23T03:12:19;6.30;99.90
20158;DHT22;10239;56.820;24.416;2024-02-23T03:14:47;6.30;99.90
20158;DHT22;10239;56.820;24.416;2024-02-23T03:17:14;6.10;99.90
20158;DHT22;10239;56.820;24.416;2024-02-23T03:19:42;6.10;99.90
20158;DHT22;10239;56.820;24.416;2024-02-23T03:22:10;6.20;99.90
20158;DHT22;10239;56.820;24.416;2024-02-23T03:24:37;6.00;99.90
20158;DHT22;10239;56.820;24.416;2024-02-23T03:27:05;6.00;99.90
20158;DHT22;10239;56.820;24.416;2024-02-23T03:29:33;6.10;99.90
20158;DHT22;10239;56.820;24.416;2024-02-23T03:32:01;6.20;99.90
20158;DHT22;10239;56.820;24.416;2024-02-23T03:34:28;6.30;99.90
20158;DHT22;10239;56.820;24.416;2024-02-23T03:36:56;6.20;99.90
20158;DHT22;10239;56.820;24.416;2024-02-23T03:39:25;6.20;99.90
20158;DHT22;10239;56.820;24.416;2024-02-23T03:41:53;6.20;99.90
20158;DHT22;10239;56.820;24.416;2024-02-23T03:44:20;6.30;99.90
20158;DHT22;10239;56.820;24.416;2024-02-23T03:46:48;6.20;99.90
20158;DHT22;10239;56.820;24.416;2024-02-23T03:49:16;6.20;99.90
20158;DHT22;10239;56.820;24.416;2024-02-23T03:51:43;6.10;99.90
20158;DHT22;10239;56.820;24.416;2024-02-23T03:54:11;6.10;99.90
20158;DHT22;10239;56.820;24.416;2024-02-23T03:56:39;6.10;99.90
20158;DHT22;10239;56.820;24.416;2024-02-23T03:59:09;6.20;99.90
20158;DHT22;10239;56.820;24.416;2024-02-23T04:01:38;6.30;99.90
20158;DHT22;10239;56.820;24.416;2024-02-23T04:04:07;6.00;99.90
20158;DHT22;10239;56.820;24.416;2024-02-23T04:06:35;6.10;99.90
20158;DHT22;10239;56.820;24.416;2024-02-23T04:09:02;6.00;99.90
20158;DHT22;10239;56.820;24.416;2024-02-23T04:11:33;6.20;99.90
20158;DHT22;10239;56.820;24.416;2024-02-23T04:14:01;6.20;99.90
20158;DHT22;10239;56.820;24.416;2024-02-23T04:16:29;6.10;99.90
20158;DHT22;10239;56.820;24.416;2024-02-23T04:18:56;6.30;99.90
20158;DHT22;10239;56.820;24.416;2024-02-23T04:21:24;6.30;99.90
20158;DHT22;10239;56.820;24.416;2024-02-23T04:23:51;6.20;99.90
20158;DHT22;10239;56.820;24.416;2024-02-23T04:26:19;6.20;99.90
20158;DHT22;10239;56.820;24.416;2024-02-23T04:28:46;6.20;99.90
20158;DHT22;10239;56.820;24.416;2024-02-23T04:31:14;6.30;99.90
20158;DHT22;10239;56.820;24.416;2024-02-23T04:33:42;6.30;99.90
20158;DHT22;10239;56.820;24.416;2024-02-23T04:36:10;6.20;99.90
20158;DHT22;10239;56.820;24.416;2024-02-23T04:38:37;6.10;99.90
20158;DHT22;10239;56.820;24.416;2024-02-23T04:41:05;6.40;99.90
20158;DHT22;10239;56.820;24.416;2024-02-23T04:43:33;6.10;99.90
20158;DHT22;10239;56.820;24.416;2024-02-23T04:46:00;6.30;99.90
20158;DHT22;10239;56.820;24.416;2024-02-23T04:48:28;6.00;99.90
20158;DHT22;10239;56.820;24.416;2024-02-23T04:50:58;6.20;99.90
20158;DHT22;10239;56.820;24.416;2024-02-23T04:53:26;6.20;99.90
20158;DHT22;10239;56.820;24.416;2024-02-23T04:55:54;5.90;99.90
20158;DHT22;10239;56.820;24.416;2024-02-23T04:58:21;6.00;99.90
20158;DHT22;10239;56.820;24.416;2024-02-23T05:00:49;6.00;99.90
20158;DHT22;10239;56.820;24.416;2024-02-23T05:03:17;5.90;99.90
20158;DHT22;10239;56.820;24.416;2024-02-23T05:05:44;5.90;99.90
20158;DHT22;10239;56.820;24.416;2024-02-23T05:08:12;5.90;99.90
20158;DHT22;10239;56.820;24.416;2024-02-23T05:10:40;5.90;99.90
20158;DHT22;10239;56.820;24.416;2024-02-23T05:13:07;6.00;99.90
20158;DHT22;10239;56.820;24.416;2024-02-23T05:15:34;5.80;99.90
20158;DHT22;10239;56.820;24.416;2024-02-23T05:18:02;5.80;99.90
20158;DHT22;10239;56.820;24.416;2024-02-23T05:20:31;5.80;99.90
20158;DHT22;10239;56.820;24.416;2024-02-23T05:22:58;5.80;99.90
20158;DHT22;10239;56.820;24.416;2024-02-23T05:25:26;5.90;99.90
20158;DHT22;10239;56.820;24.416;2024-02-23T05:27:54;5.80;99.90
20158;DHT22;10239;56.820;24.416;2024-02-23T05:30:22;5.90;99.90
20158;DHT22;10239;56.820;24.416;2024-02-23T05:32:50;5.80;99.90
20158;DHT22;10239;56.820;24.416;2024-02-23T05:35:18;6.00;99.90
20158;DHT22;10239;56.820;24.416;2024-02-23T05:37:45;6.00;99.90
20158;DHT22;10239;56.820;24.416;2024-02-23T05:40:13;5.90;99.90
20158;DHT22;10239;56.820;24.416;2024-02-23T05:42:40;5.80;99.90
20158;DHT22;10239;56.820;24.416;2024-02-23T05:45:09;6.00;99.90
20158;DHT22;10239;56.820;24.416;2024-02-23T05:47:38;5.80;99.90
20158;DHT22;10239;56.820;24.416;2024-02-23T05:50:09;5.90;99.90
20158;DHT22;10239;56.820;24.416;2024-02-23T05:52:37;5.90;99.90
20158;DHT22;10239;56.820;24.416;2024-02-23T05:55:04;6.00;99.90
20158;DHT22;10239;56.820;24.416;2024-02-23T05:57:32;6.00;99.90
20158;DHT22;10239;56.820;24.416;2024-02-23T06:00:00;6.10;99.90
20158;DHT22;10239;56.820;24.416;2024-02-23T06:02:37;6.00;99.90
20158;DHT22;10239;56.820;24.416;2024-02-23T06:05:06;6.20;99.90
20158;DHT22;10239;56.820;24.416;2024-02-23T06:07:35;6.30;99.90
20158;DHT22;10239;56.820;24.416;2024-02-23T06:10:04;6.20;99.90
20158;DHT22;10239;56.820;24.416;2024-02-23T06:12:32;6.30;99.90
20158;DHT22;10239;56.820;24.416;2024-02-23T06:15:00;6.10;99.90
20158;DHT22;10239;56.820;24.416;2024-02-23T06:17:27;6.30;99.90
20158;DHT22;10239;56.820;24.416;2024-02-23T06:19:55;6.20;99.90
20158;DHT22;10239;56.820;24.416;2024-02-23T06:22:26;6.30;99.90
20158;DHT22;10239;56.820;24.416;2024-02-23T06:24:54;6.10;99.90
20158;DHT22;10239;56.820;24.416;2024-02-23T06:27:21;6.20;99.90
20158;DHT22;10239;56.820;24.416;2024-02-23T06:29:49;6.20;99.90
20158;DHT22;10239;56.820;24.416;2024-02-23T06:32:17;6.20;99.90
20158;DHT22;10239;56.820;24.416;2024-02-23T06:34:44;6.30;99.90
20158;DHT22;10239;56.820;24.416;2024-02-23T06:37:13;6.20;99.90
20158;DHT22;10239;56.820;24.416;2024-02-23T06:39:41;6.20;99.90
20158;DHT22;10239;56.820;24.416;2024-02-23T06:42:09;6.50;99.90
20158;DHT22;10239;56.820;24.416;2024-02-23T06:44:37;6.60;99.90
20158;DHT22;10239;56.820;24.416;2024-02-23T06:47:05;6.50;99.90
20158;DHT22;10239;56.820;24.416;2024-02-23T06:49:34;6.50;99.90
20158;DHT22;10239;56.820;24.416;2024-02-23T06:52:01;6.40;99.90
20158;DHT22;10239;56.820;24.416;2024-02-23T06:54:30;6.30;99.90
20158;DHT22;10239;56.820;24.416;2024-02-23T06:56:57;6.50;99.90
20158;DHT22;10239;56.820;24.416;2024-02-23T06:59:25;6.50;99.90
20158;DHT22;10239;56.820;24.416;2024-02-23T07:01:53;6.50;99.90
20158;DHT22;10239;56.820;24.416;2024-02-23T07:04:21;6.40;99.90
20158;DHT22;10239;56.820;24.416;2024-02-23T07:06:49;6.70;99.90
20158;DHT22;10239;56.820;24.416;2024-02-23T07:09:16;6.50;99.90
20158;DHT22;10239;56.820;24.416;2024-02-23T07:11:44;6.40;99.90
20158;DHT22;10239;56.820;24.416;2024-02-23T07:14:15;6.50;99.90
20158;DHT22;10239;56.820;24.416;2024-02-23T07:16:44;6.60;99.90
20158;DHT22;10239;56.820;24.416;2024-02-23T07:19:12;6.40;99.90
20158;DHT22;10239;56.820;24.416;2024-02-23T07:21:40;6.50;99.90
20158;DHT22;10239;56.820;24.416;2024-02-23T07:24:10;6.60;99.90
20158;DHT22;10239;56.820;24.416;2024-02-23T07:26:37;6.60;99.90
20158;DHT22;10239;56.820;24.416;2024-02-23T07:29:06;6.50;99.90
20158;DHT22;10239;56.820;24.416;2024-02-23T07:31:34;6.90;99.90
20158;DHT22;10239;56.820;24.416;2024-02-23T07:34:02;6.90;99.90
20158;DHT22;10239;56.820;24.416;2024-02-23T07:36:30;6.70;99.90
20158;DHT22;10239;56.820;24.416;2024-02-23T07:38:57;6.70;99.90
20158;DHT22;10239;56.820;24.416;2024-02-23T07:41:25;6.70;99.90
20158;DHT22;10239;56.820;24.416;2024-02-23T07:43:52;6.60;99.90
20158;DHT22;10239;56.820;24.416;2024-02-23T07:46:20;6.70;99.90
20158;DHT22;10239;56.820;24.416;2024-02-23T07:48:53;6.70;99.90
20158;DHT22;10239;56.820;24.416;2024-02-23T07:51:21;6.60;99.90
20158;DHT22;10239;56.820;24.416;2024-02-23T07:53:49;6.60;99.90
20158;DHT22;10239;56.820;24.416;2024-02-23T07:56:17;6.80;99.90
20158;DHT22;10239;56.820;24.416;2024-02-23T07:58:47;6.80;99.90
20158;DHT22;10239;56.820;24.416;2024-02-23T08:01:16;6.90;99.90
20158;DHT22;10239;56.820;24.416;2024-02-23T08:03:44;6.80;99.90
20158;DHT22;10239;56.820;24.416;2024-02-23T08:06:12;6.80;99.90
20158;DHT22;10239;56.820;24.416;2024-02-23T08:08:40;7.10;99.90
20158;DHT22;10239;56.820;24.416;2024-02-23T08:11:08;7.10;99.90
20158;DHT22;10239;56.820;24.416;2024-02-23T08:13:36;7.20;99.90
20158;DHT22;10239;56.820;24.416;2024-02-23T08:16:03;7.00;99.90
20158;DHT22;10239;56.820;24.416;2024-02-23T08:18:32;7.00;99.90
20158;DHT22;10239;56.820;24.416;2024-02-23T08:20:59;7.00;99.90
20158;DHT22;10239;56.820;24.416;2024-02-23T08:23:30;6.90;99.90
20158;DHT22;10239;56.820;24.416;2024-02-23T08:25:58;6.90;99.90
20158;DHT22;10239;56.820;24.416;2024-02-23T08:28:26;6.90;99.90
20158;DHT22;10239;56.820;24.416;2024-02-23T08:30:53;7.00;99.90
20158;DHT22;10239;56.820;24.416;2024-02-23T08:33:21;7.00;99.90
20158;DHT22;10239;56.820;24.416;2024-02-23T08:35:48;7.10;99.90
20158;DHT22;10239;56.820;24.416;2024-02-23T08:38:16;7.00;99.90
20158;DHT22;10239;56.820;24.416;2024-02-23T08:40:44;7.00;99.90
20158;DHT22;10239;56.820;24.416;2024-02-23T08:43:13;6.90;99.90
20158;DHT22;10239;56.820;24.416;2024-02-23T08:45:41;7.00;99.90
20158;DHT22;10239;56.820;24.416;2024-02-23T08:48:08;7.10;99.90
20158;DHT22;10239;56.820;24.416;2024-02-23T08:50:36;7.00;99.90
20158;DHT22;10239;56.820;24.416;2024-02-23T08:53:05;7.00;99.90
20158;DHT22;10239;56.820;24.416;2024-02-23T08:55:33;7.10;99.90
20158;DHT22;10239;56.820;24.416;2024-02-23T08:58:01;7.20;99.90
20158;DHT22;10239;56.820;24.416;2024-02-23T09:00:28;7.40;99.90
20158;DHT22;10239;56.820;24.416;2024-02-23T09:02:56;7.50;99.90
20158;DHT22;10239;56.820;24.416;2024-02-23T09:05:23;7.50;99.90
20158;DHT22;10239;56.820;24.416;2024-02-23T09:07:51;7.40;99.90
20158;DHT22;10239;56.820;24.416;2024-02-23T09:10:19;7.50;99.90
20158;DHT22;10239;56.820;24.416;2024-02-23T09:12:46;7.90;99.90
20158;DHT22;10239;56.820;24.416;2024-02-23T09:15:14;7.70;99.90
20158;DHT22;10239;56.820;24.416;2024-02-23T09:17:42;7.70;99.90
20158;DHT22;10239;56.820;24.416;2024-02-23T09:20:10;7.80;99.90
20158;DHT22;10239;56.820;24.416;2024-02-23T09:22:38;7.80;99.90
20158;DHT22;10239;56.820;24.416;2024-02-23T09:25:08;7.70;99.90
20158;DHT22;10239;56.820;24.416;2024-02-23T09:27:35;7.70;99.90
20158;DHT22;10239;56.820;24.416;2024-02-23T09:30:08;7.60;99.90
20158;DHT22;10239;56.820;24.416;2024-02-23T09:32:35;7.60;99.90
20158;DHT22;10239;56.820;24.416;2024-02-23T09:35:03;7.70;99.90
20158;DHT22;10239;56.820;24.416;2024-02-23T09:37:31;7.60;99.90
20158;DHT22;10239;56.820;24.416;2024-02-23T09:39:59;7.70;99.90
20158;DHT22;10239;56.820;24.416;2024-02-23T09:42:28;7.80;99.90
20158;DHT22;10239;56.820;24.416;2024-02-23T09:44:59;7.70;99.90
20158;DHT22;10239;56.820;24.416;2024-02-23T09:47:28;7.70;99.90
20158;DHT22;10239;56.820;24.416;2024-02-23T09:49:56;7.60;99.90
20158;DHT22;10239;56.820;24.416;2024-02-23T09:52:24;7.80;99.90
20158;DHT22;10239;56.820;24.416;2024-02-23T09:54:51;7.70;99.90
20158;DHT22;10239;56.820;24.416;2024-02-23T09:57:21;7.70;99.90
20158;DHT22;10239;56.820;24.416;2024-02-23T09:59:49;7.60;99.90
20158;DHT22;10239;56.820;24.416;2024-02-23T10:02:17;7.70;99.90
20158;DHT22;10239;56.820;24.416;2024-02-23T10:04:45;7.70;99.90
20158;DHT22;10239;56.820;24.416;2024-02-23T10:07:16;7.60;99.90
20158;DHT22;10239;56.820;24.416;2024-02-23T10:09:44;7.60;99.90
20158;DHT22;10239;56.820;24.416;2024-02-23T10:12:13;7.60;99.90
20158;DHT22;10239;56.820;24.416;2024-02-23T10:14:41;7.40;99.90
20158;DHT22;10239;56.820;24.416;2024-02-23T10:17:10;7.50;99.90
20158;DHT22;10239;56.820;24.416;2024-02-23T10:19:38;7.40;99.90
20158;DHT22;10239;56.820;24.416;2024-02-23T10:22:06;7.70;99.90
20158;DHT22;10239;56.820;24.416;2024-02-23T10:24:33;7.40;99.90
20158;DHT22;10239;56.820;24.416;2024-02-23T10:27:01;7.30;99.90
20158;DHT22;10239;56.820;24.416;2024-02-23T10:29:30;7.50;99.90
20158;DHT22;10239;56.820;24.416;2024-02-23T10:31:58;7.50;99.90
20158;DHT22;10239;56.820;24.416;2024-02-23T10:34:27;7.70;99.90
20158;DHT22;10239;56.820;24.416;2024-02-23T10:36:57;7.50;99.90
20158;DHT22;10239;56.820;24.416;2024-02-23T10:39:28;7.40;99.90
20158;DHT22;10239;56.820;24.416;2024-02-23T10:41:57;7.50;99.90
20158;DHT22;10239;56.820;24.416;2024-02-23T10:44:28;7.60;99.90
20158;DHT22;10239;56.820;24.416;2024-02-23T10:46:58;7.30;99.90
20158;DHT22;10239;56.820;24.416;2024-02-23T10:49:29;7.40;99.90
20158;DHT22;10239;56.820;24.416;2024-02-23T10:51:58;7.30;99.90
20158;DHT22;10239;56.820;24.416;2024-02-23T10:54:26;7.10;99.90
20158;DHT22;10239;56.820;24.416;2024-02-23T10:56:54;7.20;99.90
20158;DHT22;10239;56.820;24.416;2024-02-23T10:59:23;7.10;99.90
20158;DHT22;10239;56.820;24.416;2024-02-23T11:01:52;7.00;99.90
20158;DHT22;10239;56.820;24.416;2024-02-23T11:04:22;7.00;99.90
20158;DHT22;10239;56.820;24.416;2024-02-23T11:06:54;7.00;99.90
20158;DHT22;10239;56.820;24.416;2024-02-23T11:09:26;7.00;99.90
20158;DHT22;10239;56.820;24.416;2024-02-23T11:11:56;6.90;99.90
20158;DHT22;10239;56.820;24.416;2024-02-23T11:14:34;6.90;99.90
20158;DHT22;10239;56.820;24.416;2024-02-23T11:17:03;6.90;99.90
20158;DHT22;10239;56.820;24.416;2024-02-23T11:19:36;6.90;99.90
20158;DHT22;10239;56.820;24.416;2024-02-23T11:22:05;6.90;99.90
20158;DHT22;10239;56.820;24.416;2024-02-23T11:24:49;6.90;99.90
20158;DHT22;10239;56.820;24.416;2024-02-23T11:27:24;6.80;99.90
20158;DHT22;10239;56.820;24.416;2024-02-23T11:30:06;6.80;99.90
20158;DHT22;10239;56.820;24.416;2024-02-23T11:32:43;6.70;99.90
20158;DHT22;10239;56.820;24.416;2024-02-23T11:35:14;6.90;99.90
20158;DHT22;10239;56.820;24.416;2024-02-23T11:37:56;6.80;99.90
20158;DHT22;10239;56.820;24.416;2024-02-23T11:40:32;6.90;99.90
20158;DHT22;10239;56.820;24.416;2024-02-23T11:43:01;6.90;99.90
20158;DHT22;10239;56.820;24.416;2024-02-23T11:45:30;6.80;99.90
20158;DHT22;10239;56.820;24.416;2024-02-23T11:47:58;6.70;99.90
20158;DHT22;10239;56.820;24.416;2024-02-23T11:50:27;6.70;99.90
20158;DHT22;10239;56.820;24.416;2024-02-23T11:52:55;6.90;99.90
20158;DHT22;10239;56.820;24.416;2024-02-23T11:55:23;6.70;99.90
20158;DHT22;10239;56.820;24.416;2024-02-23T11:57:51;6.70;99.90
20158;DHT22;10239;56.820;24.416;2024-02-23T12:00:32;6.70;99.90
20158;DHT22;10239;56.820;24.416;2024-02-23T12:03:00;6.70;99.90
20158;DHT22;10239;56.820;24.416;2024-02-23T12:05:27;7.00;99.90
20158;DHT22;10239;56.820;24.416;2024-02-23T12:07:56;6.60;99.90
20158;DHT22;10239;56.820;24.416;2024-02-23T12:10:26;6.70;99.90
20158;DHT22;10239;56.820;24.416;2024-02-23T12:12:54;6.70;99.90
20158;DHT22;10239;56.820;24.416;2024-02-23T12:15:23;6.80;99.90
20158;DHT22;10239;56.820;24.416;2024-02-23T12:17:51;6.90;99.90
20158;DHT22;10239;56.820;24.416;2024-02-23T12:20:19;6.90;99.90
20158;DHT22;10239;56.820;24.416;2024-02-23T12:22:48;6.70;99.90
20158;DHT22;10239;56.820;24.416;2024-02-23T12:25:15;6.80;99.90
20158;DHT22;10239;56.820;24.416;2024-02-23T12:27:43;6.90;99.90
20158;DHT22;10239;56.820;24.416;2024-02-23T12:30:15;6.90;99.90
20158;DHT22;10239;56.820;24.416;2024-02-23T12:32:43;6.80;99.90
20158;DHT22;10239;56.820;24.416;2024-02-23T12:35:14;6.80;99.90
20158;DHT22;10239;56.820;24.416;2024-02-23T12:37:43;6.80;99.90
20158;DHT22;10239;56.820;24.416;2024-02-23T12:40:12;6.80;99.90
20158;DHT22;10239;56.820;24.416;2024-02-23T12:42:41;6.80;99.90
20158;DHT22;10239;56.820;24.416;2024-02-23T12:45:08;6.80;99.90
20158;DHT22;10239;56.820;24.416;2024-02-23T12:47:36;6.90;99.90
20158;DHT22;10239;56.820;24.416;2024-02-23T12:50:07;6.90;99.90
20158;DHT22;10239;56.820;24.416;2024-02-23T12:52:35;6.80;99.90
20158;DHT22;10239;56.820;24.416;2024-02-23T12:55:03;6.80;99.90
20158;DHT22;10239;56.820;24.416;2024-02-23T12:57:31;7.00;99.90
20158;DHT22;10239;56.820;24.416;2024-02-23T12:59:58;7.00;99.90
20158;DHT22;10239;56.820;24.416;2024-02-23T13:02:26;6.90;99.90
20158;DHT22;10239;56.820;24.416;2024-02-23T13:04:54;6.90;99.90
20158;DHT22;10239;56.820;24.416;2024-02-23T13:07:25;7.00;99.90
20158;DHT22;10239;56.820;24.416;2024-02-23T13:09:55;6.90;99.90
20158;DHT22;10239;56.820;24.416;2024-02-23T13:12:23;6.90;99.90
20158;DHT22;10239;56.820;24.416;2024-02-23T13:14:51;7.00;99.90
20158;DHT22;10239;56.820;24.416;2024-02-23T13:17:19;7.00;99.90
20158;DHT22;10239;56.820;24.416;2024-02-23T13:19:47;7.00;99.90
20158;DHT22;10239;56.820;24.416;2024-02-23T13:22:31;7.10;99.90
20158;DHT22;10239;56.820;24.416;2024-02-23T13:24:59;7.30;99.90
20158;DHT22;10239;56.820;24.416;2024-02-23T13:27:27;7.20;99.90
20158;DHT22;10239;56.820;24.416;2024-02-23T13:29:54;7.10;99.90
20158;DHT22;10239;56.820;24.416;2024-02-23T13:32:22;7.10;99.90
20158;DHT22;10239;56.820;24.416;2024-02-23T13:34:50;7.10;99.90
20158;DHT22;10239;56.820;24.416;2024-02-23T13:37:19;7.20;99.90
20158;DHT22;10239;56.820;24.416;2024-02-23T13:39:47;7.30;99.90
20158;DHT22;10239;56.820;24.416;2024-02-23T13:42:21;7.30;99.90
20158;DHT22;10239;56.820;24.416;2024-02-23T13:44:48;7.20;99.90
20158;DHT22;10239;56.820;24.416;2024-02-23T13:47:16;7.20;99.90
20158;DHT22;10239;56.820;24.416;2024-02-23T13:49:44;7.20;99.90
20158;DHT22;10239;56.820;24.416;2024-02-23T13:52:12;7.20;99.90
20158;DHT22;10239;56.820;24.416;2024-02-23T13:54:39;7.30;99.90
20158;DHT22;10239;56.820;24.416;2024-02-23T13:57:07;7.40;99.90
20158;DHT22;10239;56.820;24.416;2024-02-23T13:59:36;7.30;99.90
20158;DHT22;10239;56.820;24.416;2024-02-23T14:02:04;7.40;99.90
20158;DHT22;10239;56.820;24.416;2024-02-23T14:04:32;7.60;99.90
20158;DHT22;10239;56.820;24.416;2024-02-23T14:06:59;7.40;99.90
20158;DHT22;10239;56.820;24.416;2024-02-23T14:09:27;7.40;99.90
20158;DHT22;10239;56.820;24.416;2024-02-23T14:11:55;7.40;99.90
20158;DHT22;10239;56.820;24.416;2024-02-23T14:14:23;7.30;99.90
20158;DHT22;10239;56.820;24.416;2024-02-23T14:16:51;7.20;99.90
20158;DHT22;10239;56.820;24.416;2024-02-23T14:19:18;7.20;99.90
20158;DHT22;10239;56.820;24.416;2024-02-23T14:21:48;7.40;99.90
20158;DHT22;10239;56.820;24.416;2024-02-23T14:24:16;7.40;99.90
20158;DHT22;10239;56.820;24.416;2024-02-23T14:26:44;7.40;99.90
20158;DHT22;10239;56.820;24.416;2024-02-23T14:29:11;7.50;99.90
20158;DHT22;10239;56.820;24.416;2024-02-23T14:31:39;7.50;99.90
20158;DHT22;10239;56.820;24.416;2024-02-23T14:34:06;7.40;99.90
20158;DHT22;10239;56.820;24.416;2024-02-23T14:36:34;7.50;99.90
20158;DHT22;10239;56.820;24.416;2024-02-23T14:39:02;7.60;99.90
20158;DHT22;10239;56.820;24.416;2024-02-23T14:41:31;7.60;99.90
20158;DHT22;10239;56.820;24.416;2024-02-23T14:43:59;7.70;99.90
20158;DHT22;10239;56.820;24.416;2024-02-23T14:46:27;7.70;99.90
20158;DHT22;10239;56.820;24.416;2024-02-23T14:48:55;7.70;99.90
20158;DHT22;10239;56.820;24.416;2024-02-23T14:51:23;7.60;99.90
20158;DHT22;10239;56.820;24.416;2024-02-23T14:53:50;7.70;99.90
20158;DHT22;10239;56.820;24.416;2024-02-23T14:56:18;7.80;99.90
20158;DHT22;10239;56.820;24.416;2024-02-23T14:58:45;7.70;99.90
20158;DHT22;10239;56.820;24.416;2024-02-23T15:01:13;7.70;99.90
20158;DHT22;10239;56.820;24.416;2024-02-23T15:03:44;7.50;99.90
20158;DHT22;10239;56.820;24.416;2024-02-23T15:06:11;7.70;99.90
20158;DHT22;10239;56.820;24.416;2024-02-23T15:08:39;7.50;99.90
20158;DHT22;10239;56.820;24.416;2024-02-23T15:11:08;7.70;99.90
20158;DHT22;10239;56.820;24.416;2024-02-23T15:13:35;7.80;99.90
20158;DHT22;10239;56.820;24.416;2024-02-23T15:16:03;7.70;99.90
20158;DHT22;10239;56.820;24.416;2024-02-23T15:18:31;7.60;99.90
20158;DHT22;10239;56.820;24.416;2024-02-23T15:20:58;7.80;99.90
20158;DHT22;10239;56.820;24.416;2024-02-23T15:23:26;7.70;99.90
20158;DHT22;10239;56.820;24.416;2024-02-23T15:25:54;7.90;99.90
20158;DHT22;10239;56.820;24.416;2024-02-23T15:28:33;7.60;99.90
20158;DHT22;10239;56.820;24.416;2024-02-23T15:31:02;7.70;99.90
20158;DHT22;10239;56.820;24.416;2024-02-23T15:33:30;7.60;99.90
20158;DHT22;10239;56.820;24.416;2024-02-23T15:35:58;7.50;99.90
20158;DHT22;10239;56.820;24.416;2024-02-23T15:38:26;7.70;99.90